Coastal Inspiration — CFN4970 — position and weather

sailwx.info

Track history (hours):
 
Tides and Currents Weather Stations Pressure Air Temp Water Temp Dewpoint Dewpoint Depression Visibility Wind Speed Wind Dir Waves Ship Positions

Coastal Inspiration

Last reported at 2014-Aug-01 07:33 UTC. Time now 2014-Aug-01 07:58 UTC.
Position N 49°13' W 123°48'.

Length 160 m; draft 6 m.

Type: Passenger vessel. MMSI: 316011408.

Date/timePositionNaut miles runAvg speedWind from/ knotsBaromVisibWave heightAir tempDewpointWater temp
2014-Aug-01 07:33N 49°13' W 123°48'1919.2
2014-Aug-01 06:33N 49°04' W 123°21'10 9.6
2014-Aug-01 05:32N 49°00' W 123°08'1717.3
2014-Aug-01 04:33N 49°07' W 123°32'1413.1
2014-Aug-01 03:28N 49°10' W 123°53'7 8.3
2014-Aug-01 02:34N 49°12' W 123°42'2019.6
2014-Aug-01 01:33N 49°02' W 123°16'6 5.7
2014-Aug-01 00:33N 49°00' W 123°08'1918.8
2014-Jul-31 23:33N 49°08' W 123°34'1311.6
2014-Jul-31 22:28N 49°10' W 123°53'6 6.2
2014-Jul-31 21:33N 49°13' W 123°46'1919.2
2014-Jul-31 20:33N 49°04' W 123°20'9 8.6
2014-Jul-31 19:32N 49°00' W 123°08'1515.0
2014-Jul-31 18:33N 49°05' W 123°29'1715.9
2014-Jul-31 17:31N 49°10' W 123°53'5 5.4
2014-Jul-31 16:33N 49°13' W 123°47'1919.5
2014-Jul-31 15:34N 49°04' W 123°21'9 9.2
2014-Jul-31 14:32N 49°00' W 123°08'1312.9
2014-Jul-31 13:33N 49°04' W 123°26'1818.2
2014-Jul-31 12:33N 49°13' W 123°50'4 3.6
2014-Jul-31 11:28N 49°10' W 123°53'0 0.0
2014-Jul-31 10:28N 49°10' W 123°53'0 0.0
2014-Jul-31 09:33N 49°10' W 123°53'0 0.0
2014-Jul-31 08:27N 49°10' W 123°53'3 3.6
2014-Jul-31 07:33N 49°13' W 123°51'1919.1
2014-Jul-31 06:34N 49°05' W 123°24'1211.6
2014-Jul-31 05:33N 49°00' W 123°08'1313.2
2014-Jul-31 04:33N 49°04' W 123°27'1918.6
2014-Jul-31 03:33N 49°11' W 123°53'4 3.8
2014-Jul-31 02:34N 49°13' W 123°48'2120.9
2014-Jul-31 01:33N 49°04' W 123°20'8 8.4
2014-Jul-31 00:33N 49°00' W 123°08'1717.5
2014-Jul-30 23:33N 49°07' W 123°32'1414.0
2014-Jul-30 22:33N 49°10' W 123°53'6 5.8
2014-Jul-30 21:33N 49°13' W 123°46'2019.8
2014-Jul-30 20:34N 49°04' W 123°20'8 8.2
2014-Jul-30 19:32N 49°00' W 123°08'1313.4
2014-Jul-30 18:33N 49°04' W 123°27'1818.4
2014-Jul-30 17:33N 49°13' W 123°52'1 1.0
2014-Jul-30 16:33N 49°13' W 123°51'1919.0
2014-Jul-30 15:33N 49°05' W 123°24'1111.0
2014-Jul-30 14:31N 49°00' W 123°08'1212.5
2014-Jul-30 13:34N 49°04' W 123°25'1817.8
2014-Jul-30 12:34N 49°13' W 123°49'5 4.3
2014-Jul-30 11:30N 49°10' W 123°53'0 0.0
2014-Jul-30 10:29N 49°10' W 123°53'0 0.0
2014-Jul-30 09:29N 49°10' W 123°53'0 0.0
2014-Jul-30 08:29N 49°10' W 123°53'0 0.3
2014-Jul-30 07:33N 49°10' W 123°53'1716.9
2014-Jul-30 06:33N 49°07' W 123°28'1514.7
2014-Jul-30 05:33N 49°00' W 123°08'1312.6
2014-Jul-30 04:34N 49°04' W 123°26'1919.2
2014-Jul-30 03:33N 49°12' W 123°53'2 2.2
2014-Jul-30 02:34N 49°13' W 123°50'1919.1
2014-Jul-30 01:34N 49°05' W 123°24'1111.4
2014-Jul-30 00:33N 49°00' W 123°08'1313.5
2014-Jul-29 23:33N 49°05' W 123°27'1818.2
2014-Jul-29 22:33N 49°12' W 123°53'0 0.4
2014-Jul-29 21:34N 49°13' W 123°52'1919.4
2014-Jul-29 20:33N 49°06' W 123°25'1212.1
2014-Jul-29 19:33N 49°00' W 123°08'1211.6
2014-Jul-29 18:33N 49°04' W 123°25'1919.0
2014-Jul-29 17:33N 49°13' W 123°51'1 1.2
2014-Jul-29 16:33N 49°12' W 123°52'1918.6
2014-Jul-29 15:34N 49°06' W 123°26'1312.9
2014-Jul-29 14:33N 49°00' W 123°08'1212.0
2014-Jul-29 13:33N 49°04' W 123°25'1818.0
2014-Jul-29 12:33N 49°13' W 123°49'4 4.1
2014-Jul-29 11:33N 49°10' W 123°53'0 0.0
2014-Jul-29 10:33N 49°10' W 123°53'0 0.0
2014-Jul-29 09:33N 49°10' W 123°53'0 0.0
2014-Jul-29 08:33N 49°10' W 123°53'5 5.4
2014-Jul-29 07:34N 49°13' W 123°47'2019.8
2014-Jul-29 06:33N 49°04' W 123°20'9 8.8
2014-Jul-29 05:34N 49°00' W 123°08'1817.7
2014-Jul-29 04:33N 49°07' W 123°33'1413.7
2014-Jul-29 03:33N 49°10' W 123°53'6 5.7
2014-Jul-29 02:33N 49°13' W 123°46'2019.9
2014-Jul-29 01:33N 49°03' W 123°20'8 8.3
2014-Jul-29 00:33N 49°00' W 123°08'1515.3
2014-Jul-28 23:34N 49°06' W 123°30'1616.0
2014-Jul-28 22:33N 49°10' W 123°53'4 4.1
2014-Jul-28 21:33N 49°13' W 123°49'2019.9
2014-Jul-28 20:33N 49°04' W 123°22'1010.0
2014-Jul-28 19:33N 49°00' W 123°08'1111.5
2014-Jul-28 18:33N 49°04' W 123°25'1919.2
2014-Jul-28 17:34N 49°13' W 123°50'2 2.1
2014-Jul-28 16:33N 49°12' W 123°53'1818.1
2014-Jul-28 15:34N 49°07' W 123°27'1413.9
2014-Jul-28 14:33N 49°00' W 123°08'1211.7
2014-Jul-28 13:33N 49°04' W 123°25'1918.6
2014-Jul-28 12:33N 49°13' W 123°50'4 3.8
2014-Jul-28 11:33N 49°10' W 123°53'0 0.0
2014-Jul-28 10:33N 49°10' W 123°53'0 0.0
2014-Jul-28 09:33N 49°10' W 123°53'0 0.0
2014-Jul-28 08:33N 49°10' W 123°53'2 1.6
2014-Jul-28 07:34N 49°11' W 123°53'1918.7
2014-Jul-28 06:33N 49°06' W 123°26'1313.0
2014-Jul-28 05:33N 49°00' W 123°08'1413.8
2014-Jul-28 04:34N 49°05' W 123°28'1817.9
2014-Jul-28 03:34N 49°12' W 123°53'2 2.1
2014-Jul-28 02:34N 49°13' W 123°50'2019.8
2014-Jul-28 01:33N 49°05' W 123°22'1010.4
2014-Jul-28 00:33N 49°00' W 123°08'1414.2
2014-Jul-27 23:33N 49°05' W 123°28'1717.2
2014-Jul-27 22:33N 49°11' W 123°53'2 2.0
2014-Jul-27 21:33N 49°12' W 123°52'2019.5
2014-Jul-27 20:33N 49°06' W 123°24'1212.0
2014-Jul-27 19:33N 49°00' W 123°08'1212.3
2014-Jul-27 18:34N 49°04' W 123°26'1919.1
2014-Jul-27 17:34N 49°12' W 123°52'0 0.4
2014-Jul-27 16:33N 49°12' W 123°53'1918.7
2014-Jul-27 15:33N 49°06' W 123°26'1313.0
2014-Jul-27 14:33N 49°00' W 123°08'1111.5
2014-Jul-27 13:33N 49°04' W 123°25'1918.7
2014-Jul-27 12:33N 49°13' W 123°49'4 4.1
2014-Jul-27 11:33N 49°10' W 123°53'0 0.0
2014-Jul-27 10:33N 49°10' W 123°53'0 0.0
2014-Jul-27 09:33N 49°10' W 123°53'0 0.0
2014-Jul-27 08:33N 49°10' W 123°53'0 0.3
2014-Jul-27 07:33N 49°10' W 123°53'1717.0
2014-Jul-27 06:34N 49°07' W 123°28'1514.6
2014-Jul-27 05:33N 49°00' W 123°08'1211.8
2014-Jul-27 04:33N 49°04' W 123°25'1818.2
2014-Jul-27 03:33N 49°13' W 123°49'2 1.9
2014-Jul-27 02:34N 49°13' W 123°52'1918.8
2014-Jul-27 01:33N 49°06' W 123°25'1212.3
2014-Jul-27 00:33N 49°00' W 123°08'1212.3
2014-Jul-26 23:33N 49°04' W 123°26'1918.7
2014-Jul-26 22:34N 49°13' W 123°51'1 0.8
2014-Jul-26 21:33N 49°13' W 123°52'2020.2
2014-Jul-26 20:33N 49°05' W 123°24'1111.3
2014-Jul-26 19:33N 49°00' W 123°08'1212.0
2014-Jul-26 18:33N 49°04' W 123°25'1918.8
2014-Jul-26 17:34N 49°13' W 123°51'2 1.6
2014-Jul-26 16:33N 49°12' W 123°53'2019.7
2014-Jul-26 15:34N 49°06' W 123°24'1212.2
2014-Jul-26 14:34N 49°00' W 123°08'1111.4
2014-Jul-26 13:34N 49°03' W 123°25'1918.7
2014-Jul-26 12:34N 49°13' W 123°49'4 4.0
2014-Jul-26 11:32N 49°10' W 123°53'0 0.1
2014-Jul-26 10:31N 49°10' W 123°53'0 0.0
2014-Jul-26 09:33N 49°10' W 123°53'0 0.0
2014-Jul-26 08:33N 49°10' W 123°53'0 0.1
2014-Jul-26 07:33N 49°10' W 123°53'1716.9
2014-Jul-26 06:33N 49°07' W 123°28'1514.7
2014-Jul-26 05:33N 49°00' W 123°08'1212.1
2014-Jul-26 04:34N 49°04' W 123°25'1919.2
2014-Jul-26 03:34N 49°13' W 123°52'3 2.6
2014-Jul-26 02:33N 49°13' W 123°48'2020.4
2014-Jul-26 01:34N 49°04' W 123°20'9 8.8
2014-Jul-26 00:33N 49°00' W 123°08'1615.6
2014-Jul-25 23:33N 49°06' W 123°30'1615.8
2014-Jul-25 22:33N 49°10' W 123°53'2 2.2
2014-Jul-25 21:33N 49°12' W 123°53'1919.3
2014-Jul-25 20:33N 49°06' W 123°25'1312.6
2014-Jul-25 19:33N 49°00' W 123°08'1211.5
2014-Jul-25 18:33N 49°04' W 123°25'1919.0
2014-Jul-25 17:33N 49°13' W 123°50'2 1.6
2014-Jul-25 16:33N 49°12' W 123°53'1919.2
2014-Jul-25 15:34N 49°06' W 123°25'1212.5
2014-Jul-25 14:34N 49°00' W 123°08'1212.3
2014-Jul-25 13:34N 49°04' W 123°26'1918.5
2014-Jul-25 12:34N 49°13' W 123°51'4 3.5
2014-Jul-25 11:32N 49°10' W 123°53'0 0.0
2014-Jul-25 10:31N 49°10' W 123°53'0 0.0
2014-Jul-25 09:31N 49°10' W 123°53'0 0.0
2014-Jul-25 08:06N 49°10' W 123°53'0 0.6
2014-Jul-25 07:33N 49°10' W 123°53'1716.9
2014-Jul-25 06:33N 49°07' W 123°28'1514.7
2014-Jul-25 05:33N 49°00' W 123°08'1111.3
2014-Jul-25 04:33N 49°04' W 123°24'2019.8
2014-Jul-25 03:33N 49°12' W 123°52'2 2.1
2014-Jul-25 02:34N 49°13' W 123°49'2121.4
2014-Jul-25 01:34N 49°03' W 123°20'8 8.3
2014-Jul-25 00:33N 49°00' W 123°08'1717.1
2014-Jul-24 23:34N 49°07' W 123°32'1414.1
2014-Jul-24 22:33N 49°10' W 123°53'4 3.8
2014-Jul-24 21:33N 49°13' W 123°50'1918.6
2014-Jul-24 20:33N 49°05' W 123°24'1210.5
2014-Jul-24 19:27N 49°00' W 123°08'1112.8
2014-Jul-24 18:33N 49°03' W 123°25'1818.2
2014-Jul-24 17:34N 49°13' W 123°48'2 1.8
2014-Jul-24 16:33N 49°13' W 123°51'1918.9
2014-Jul-24 15:33N 49°05' W 123°24'1210.9
2014-Jul-24 14:28N 49°00' W 123°08'1213.1
2014-Jul-24 13:33N 49°04' W 123°25'1717.4
2014-Jul-24 12:33N 49°13' W 123°48'5 4.5
2014-Jul-24 11:31N 49°10' W 123°53'0 0.0
2014-Jul-24 10:33N 49°10' W 123°53'0 0.0
2014-Jul-24 09:30N 49°10' W 123°53'0 0.0
2014-Jul-24 08:24N 49°10' W 123°53'5 5.8
2014-Jul-24 07:33N 49°14' W 123°49'2121.4
2014-Jul-24 06:34N 49°04' W 123°20'8 8.5
2014-Jul-24 05:33N 49°00' W 123°08'1514.8
2014-Jul-24 04:33N 49°06' W 123°29'1716.6
2014-Jul-24 03:33N 49°10' W 123°53'3 3.1
2014-Jul-24 02:34N 49°13' W 123°51'2020.3
2014-Jul-24 01:34N 49°06' W 123°22'1110.8
2014-Jul-24 00:33N 49°00' W 123°08'1211.9
2014-Jul-23 23:33N 49°04' W 123°25'1918.6
2014-Jul-23 22:33N 49°13' W 123°51'1 1.3
2014-Jul-23 21:33N 49°12' W 123°53'1717.5
2014-Jul-23 20:33N 49°06' W 123°28'1414.2
2014-Jul-23 19:33N 49°00' W 123°08'1211.7
2014-Jul-23 18:34N 49°04' W 123°25'1918.5
2014-Jul-23 17:34N 49°13' W 123°50'1 1.4
2014-Jul-23 16:33N 49°13' W 123°52'1817.6
2014-Jul-23 15:33N 49°06' W 123°27'1413.3
2014-Jul-23 14:32N 49°00' W 123°08'1212.4
2014-Jul-23 13:33N 49°04' W 123°26'1817.5
2014-Jul-23 12:33N 49°13' W 123°49'4 4.3
2014-Jul-23 11:31N 49°10' W 123°53'0 0.0
2014-Jul-23 10:30N 49°10' W 123°53'0 0.0
2014-Jul-23 09:30N 49°10' W 123°53'0 0.0
2014-Jul-23 08:29N 49°10' W 123°53'2 1.8
2014-Jul-23 07:33N 49°11' W 123°53'1717.4
2014-Jul-23 06:33N 49°08' W 123°27'1514.6
2014-Jul-23 05:33N 49°00' W 123°08'1211.9
2014-Jul-23 04:34N 49°04' W 123°25'1918.8
2014-Jul-23 03:34N 49°13' W 123°51'1 0.8
2014-Jul-23 02:33N 49°13' W 123°52'1919.3
2014-Jul-23 01:33N 49°05' W 123°25'1212.0
2014-Jul-23 00:34N 49°00' W 123°08'1413.6
2014-Jul-22 23:33N 49°05' W 123°27'1818.2
2014-Jul-22 22:33N 49°12' W 123°53'1 1.1
2014-Jul-22 21:33N 49°13' W 123°52'1918.9
2014-Jul-22 20:33N 49°05' W 123°25'1212.1
2014-Jul-22 19:32N 49°00' W 123°08'1313.8
2014-Jul-22 18:34N 49°05' W 123°27'1817.6
2014-Jul-22 17:34N 49°12' W 123°52'3 2.7
2014-Jul-22 16:33N 49°10' W 123°53'1716.7
2014-Jul-22 15:33N 49°07' W 123°28'1514.8
2014-Jul-22 14:33N 49°00' W 123°08'1212.3
2014-Jul-22 13:33N 49°04' W 123°26'1717.3
2014-Jul-22 12:34N 49°13' W 123°49'5 4.2
2014-Jul-22 11:29N 49°10' W 123°53'0 0.0
2014-Jul-22 10:33N 49°10' W 123°53'0 0.0
2014-Jul-22 09:33N 49°10' W 123°53'0 0.0
2014-Jul-22 08:33N 49°10' W 123°53'1 0.6
2014-Jul-22 07:33N 49°10' W 123°53'  
Track history (hours):
 
Tides and Currents Weather Stations Pressure Air Temp Water Temp Dewpoint Dewpoint Depression Visibility Wind Speed Wind Dir Waves Ship Positions

Coastal Inspiration

Last reported at 2014-Aug-01 07:33 UTC. Time now 2014-Aug-01 07:58 UTC.
Position N 49°13' W 123°48'.

Length 160 m; draft 6 m.

Type: Passenger vessel. MMSI: 316011408.

Date/timePositionNaut miles runAvg speedWind from/ knotsBaromVisibWave heightAir tempDewpointWater temp
2014-Aug-01 07:33N 49°13' W 123°48'1919.2
2014-Aug-01 06:33N 49°04' W 123°21'10 9.6
2014-Aug-01 05:32N 49°00' W 123°08'1717.3
2014-Aug-01 04:33N 49°07' W 123°32'1413.1
2014-Aug-01 03:28N 49°10' W 123°53'7 8.3
2014-Aug-01 02:34N 49°12' W 123°42'2019.6
2014-Aug-01 01:33N 49°02' W 123°16'6 5.7
2014-Aug-01 00:33N 49°00' W 123°08'1918.8
2014-Jul-31 23:33N 49°08' W 123°34'1311.6
2014-Jul-31 22:28N 49°10' W 123°53'6 6.2
2014-Jul-31 21:33N 49°13' W 123°46'1919.2
2014-Jul-31 20:33N 49°04' W 123°20'9 8.6
2014-Jul-31 19:32N 49°00' W 123°08'1515.0
2014-Jul-31 18:33N 49°05' W 123°29'1715.9
2014-Jul-31 17:31N 49°10' W 123°53'5 5.4
2014-Jul-31 16:33N 49°13' W 123°47'1919.5
2014-Jul-31 15:34N 49°04' W 123°21'9 9.2
2014-Jul-31 14:32N 49°00' W 123°08'1312.9
2014-Jul-31 13:33N 49°04' W 123°26'1818.2
2014-Jul-31 12:33N 49°13' W 123°50'4 3.6
2014-Jul-31 11:28N 49°10' W 123°53'0 0.0
2014-Jul-31 10:28N 49°10' W 123°53'0 0.0
2014-Jul-31 09:33N 49°10' W 123°53'0 0.0
2014-Jul-31 08:27N 49°10' W 123°53'3 3.6
2014-Jul-31 07:33N 49°13' W 123°51'1919.1
2014-Jul-31 06:34N 49°05' W 123°24'1211.6
2014-Jul-31 05:33N 49°00' W 123°08'1313.2
2014-Jul-31 04:33N 49°04' W 123°27'1918.6
2014-Jul-31 03:33N 49°11' W 123°53'4 3.8
2014-Jul-31 02:34N 49°13' W 123°48'2120.9
2014-Jul-31 01:33N 49°04' W 123°20'8 8.4
2014-Jul-31 00:33N 49°00' W 123°08'1717.5
2014-Jul-30 23:33N 49°07' W 123°32'1414.0
2014-Jul-30 22:33N 49°10' W 123°53'6 5.8
2014-Jul-30 21:33N 49°13' W 123°46'2019.8
2014-Jul-30 20:34N 49°04' W 123°20'8 8.2
2014-Jul-30 19:32N 49°00' W 123°08'1313.4
2014-Jul-30 18:33N 49°04' W 123°27'1818.4
2014-Jul-30 17:33N 49°13' W 123°52'1 1.0
2014-Jul-30 16:33N 49°13' W 123°51'1919.0
2014-Jul-30 15:33N 49°05' W 123°24'1111.0
2014-Jul-30 14:31N 49°00' W 123°08'1212.5
2014-Jul-30 13:34N 49°04' W 123°25'1817.8
2014-Jul-30 12:34N 49°13' W 123°49'5 4.3
2014-Jul-30 11:30N 49°10' W 123°53'0 0.0
2014-Jul-30 10:29N 49°10' W 123°53'0 0.0
2014-Jul-30 09:29N 49°10' W 123°53'0 0.0
2014-Jul-30 08:29N 49°10' W 123°53'0 0.3
2014-Jul-30 07:33N 49°10' W 123°53'1716.9
2014-Jul-30 06:33N 49°07' W 123°28'1514.7
2014-Jul-30 05:33N 49°00' W 123°08'1312.6
2014-Jul-30 04:34N 49°04' W 123°26'1919.2
2014-Jul-30 03:33N 49°12' W 123°53'2 2.2
2014-Jul-30 02:34N 49°13' W 123°50'1919.1
2014-Jul-30 01:34N 49°05' W 123°24'1111.4
2014-Jul-30 00:33N 49°00' W 123°08'1313.5
2014-Jul-29 23:33N 49°05' W 123°27'1818.2
2014-Jul-29 22:33N 49°12' W 123°53'0 0.4
2014-Jul-29 21:34N 49°13' W 123°52'1919.4
2014-Jul-29 20:33N 49°06' W 123°25'1212.1
2014-Jul-29 19:33N 49°00' W 123°08'1211.6
2014-Jul-29 18:33N 49°04' W 123°25'1919.0
2014-Jul-29 17:33N 49°13' W 123°51'1 1.2
2014-Jul-29 16:33N 49°12' W 123°52'1918.6
2014-Jul-29 15:34N 49°06' W 123°26'1312.9
2014-Jul-29 14:33N 49°00' W 123°08'1212.0
2014-Jul-29 13:33N 49°04' W 123°25'1818.0
2014-Jul-29 12:33N 49°13' W 123°49'4 4.1
2014-Jul-29 11:33N 49°10' W 123°53'0 0.0
2014-Jul-29 10:33N 49°10' W 123°53'0 0.0
2014-Jul-29 09:33N 49°10' W 123°53'0 0.0
2014-Jul-29 08:33N 49°10' W 123°53'5 5.4
2014-Jul-29 07:34N 49°13' W 123°47'2019.8
2014-Jul-29 06:33N 49°04' W 123°20'9 8.8
2014-Jul-29 05:34N 49°00' W 123°08'1817.7
2014-Jul-29 04:33N 49°07' W 123°33'1413.7
2014-Jul-29 03:33N 49°10' W 123°53'6 5.7
2014-Jul-29 02:33N 49°13' W 123°46'2019.9
2014-Jul-29 01:33N 49°03' W 123°20'8 8.3
2014-Jul-29 00:33N 49°00' W 123°08'1515.3
2014-Jul-28 23:34N 49°06' W 123°30'1616.0
2014-Jul-28 22:33N 49°10' W 123°53'4 4.1
2014-Jul-28 21:33N 49°13' W 123°49'2019.9
2014-Jul-28 20:33N 49°04' W 123°22'1010.0
2014-Jul-28 19:33N 49°00' W 123°08'1111.5
2014-Jul-28 18:33N 49°04' W 123°25'1919.2
2014-Jul-28 17:34N 49°13' W 123°50'2 2.1
2014-Jul-28 16:33N 49°12' W 123°53'1818.1
2014-Jul-28 15:34N 49°07' W 123°27'1413.9
2014-Jul-28 14:33N 49°00' W 123°08'1211.7
2014-Jul-28 13:33N 49°04' W 123°25'1918.6
2014-Jul-28 12:33N 49°13' W 123°50'4 3.8
2014-Jul-28 11:33N 49°10' W 123°53'0 0.0
2014-Jul-28 10:33N 49°10' W 123°53'0 0.0
2014-Jul-28 09:33N 49°10' W 123°53'0 0.0
2014-Jul-28 08:33N 49°10' W 123°53'2 1.6
2014-Jul-28 07:34N 49°11' W 123°53'1918.7
2014-Jul-28 06:33N 49°06' W 123°26'1313.0
2014-Jul-28 05:33N 49°00' W 123°08'1413.8
2014-Jul-28 04:34N 49°05' W 123°28'1817.9
2014-Jul-28 03:34N 49°12' W 123°53'2 2.1
2014-Jul-28 02:34N 49°13' W 123°50'2019.8
2014-Jul-28 01:33N 49°05' W 123°22'1010.4
2014-Jul-28 00:33N 49°00' W 123°08'1414.2
2014-Jul-27 23:33N 49°05' W 123°28'1717.2
2014-Jul-27 22:33N 49°11' W 123°53'2 2.0
2014-Jul-27 21:33N 49°12' W 123°52'2019.5
2014-Jul-27 20:33N 49°06' W 123°24'1212.0
2014-Jul-27 19:33N 49°00' W 123°08'1212.3
2014-Jul-27 18:34N 49°04' W 123°26'1919.1
2014-Jul-27 17:34N 49°12' W 123°52'0 0.4
2014-Jul-27 16:33N 49°12' W 123°53'1918.7
2014-Jul-27 15:33N 49°06' W 123°26'1313.0
2014-Jul-27 14:33N 49°00' W 123°08'1111.5
2014-Jul-27 13:33N 49°04' W 123°25'1918.7
2014-Jul-27 12:33N 49°13' W 123°49'4 4.1
2014-Jul-27 11:33N 49°10' W 123°53'0 0.0
2014-Jul-27 10:33N 49°10' W 123°53'0 0.0
2014-Jul-27 09:33N 49°10' W 123°53'0 0.0
2014-Jul-27 08:33N 49°10' W 123°53'0 0.3
2014-Jul-27 07:33N 49°10' W 123°53'1717.0
2014-Jul-27 06:34N 49°07' W 123°28'1514.6
2014-Jul-27 05:33N 49°00' W 123°08'1211.8
2014-Jul-27 04:33N 49°04' W 123°25'1818.2
2014-Jul-27 03:33N 49°13' W 123°49'2 1.9
2014-Jul-27 02:34N 49°13' W 123°52'1918.8
2014-Jul-27 01:33N 49°06' W 123°25'1212.3
2014-Jul-27 00:33N 49°00' W 123°08'1212.3
2014-Jul-26 23:33N 49°04' W 123°26'1918.7
2014-Jul-26 22:34N 49°13' W 123°51'1 0.8
2014-Jul-26 21:33N 49°13' W 123°52'2020.2
2014-Jul-26 20:33N 49°05' W 123°24'1111.3
2014-Jul-26 19:33N 49°00' W 123°08'1212.0
2014-Jul-26 18:33N 49°04' W 123°25'1918.8
2014-Jul-26 17:34N 49°13' W 123°51'2 1.6
2014-Jul-26 16:33N 49°12' W 123°53'2019.7
2014-Jul-26 15:34N 49°06' W 123°24'1212.2
2014-Jul-26 14:34N 49°00' W 123°08'1111.4
2014-Jul-26 13:34N 49°03' W 123°25'1918.7
2014-Jul-26 12:34N 49°13' W 123°49'4 4.0
2014-Jul-26 11:32N 49°10' W 123°53'0 0.1
2014-Jul-26 10:31N 49°10' W 123°53'0 0.0
2014-Jul-26 09:33N 49°10' W 123°53'0 0.0
2014-Jul-26 08:33N 49°10' W 123°53'0 0.1
2014-Jul-26 07:33N 49°10' W 123°53'1716.9
2014-Jul-26 06:33N 49°07' W 123°28'1514.7
2014-Jul-26 05:33N 49°00' W 123°08'1212.1
2014-Jul-26 04:34N 49°04' W 123°25'1919.2
2014-Jul-26 03:34N 49°13' W 123°52'3 2.6
2014-Jul-26 02:33N 49°13' W 123°48'2020.4
2014-Jul-26 01:34N 49°04' W 123°20'9 8.8
2014-Jul-26 00:33N 49°00' W 123°08'1615.6
2014-Jul-25 23:33N 49°06' W 123°30'1615.8
2014-Jul-25 22:33N 49°10' W 123°53'2 2.2
2014-Jul-25 21:33N 49°12' W 123°53'1919.3
2014-Jul-25 20:33N 49°06' W 123°25'1312.6
2014-Jul-25 19:33N 49°00' W 123°08'1211.5
2014-Jul-25 18:33N 49°04' W 123°25'1919.0
2014-Jul-25 17:33N 49°13' W 123°50'2 1.6
2014-Jul-25 16:33N 49°12' W 123°53'1919.2
2014-Jul-25 15:34N 49°06' W 123°25'1212.5
2014-Jul-25 14:34N 49°00' W 123°08'1212.3
2014-Jul-25 13:34N 49°04' W 123°26'1918.5
2014-Jul-25 12:34N 49°13' W 123°51'4 3.5
2014-Jul-25 11:32N 49°10' W 123°53'0 0.0
2014-Jul-25 10:31N 49°10' W 123°53'0 0.0
2014-Jul-25 09:31N 49°10' W 123°53'0 0.0
2014-Jul-25 08:06N 49°10' W 123°53'0 0.6
2014-Jul-25 07:33N 49°10' W 123°53'1716.9
2014-Jul-25 06:33N 49°07' W 123°28'1514.7
2014-Jul-25 05:33N 49°00' W 123°08'1111.3
2014-Jul-25 04:33N 49°04' W 123°24'2019.8
2014-Jul-25 03:33N 49°12' W 123°52'2 2.1
2014-Jul-25 02:34N 49°13' W 123°49'2121.4
2014-Jul-25 01:34N 49°03' W 123°20'8 8.3
2014-Jul-25 00:33N 49°00' W 123°08'1717.1
2014-Jul-24 23:34N 49°07' W 123°32'1414.1
2014-Jul-24 22:33N 49°10' W 123°53'4 3.8
2014-Jul-24 21:33N 49°13' W 123°50'1918.6
2014-Jul-24 20:33N 49°05' W 123°24'1210.5
2014-Jul-24 19:27N 49°00' W 123°08'1112.8
2014-Jul-24 18:33N 49°03' W 123°25'1818.2
2014-Jul-24 17:34N 49°13' W 123°48'2 1.8
2014-Jul-24 16:33N 49°13' W 123°51'1918.9
2014-Jul-24 15:33N 49°05' W 123°24'1210.9
2014-Jul-24 14:28N 49°00' W 123°08'1213.1
2014-Jul-24 13:33N 49°04' W 123°25'1717.4
2014-Jul-24 12:33N 49°13' W 123°48'5 4.5
2014-Jul-24 11:31N 49°10' W 123°53'0 0.0
2014-Jul-24 10:33N 49°10' W 123°53'0 0.0
2014-Jul-24 09:30N 49°10' W 123°53'0 0.0
2014-Jul-24 08:24N 49°10' W 123°53'5 5.8
2014-Jul-24 07:33N 49°14' W 123°49'2121.4
2014-Jul-24 06:34N 49°04' W 123°20'8 8.5
2014-Jul-24 05:33N 49°00' W 123°08'1514.8
2014-Jul-24 04:33N 49°06' W 123°29'1716.6
2014-Jul-24 03:33N 49°10' W 123°53'3 3.1
2014-Jul-24 02:34N 49°13' W 123°51'2020.3
2014-Jul-24 01:34N 49°06' W 123°22'1110.8
2014-Jul-24 00:33N 49°00' W 123°08'1211.9
2014-Jul-23 23:33N 49°04' W 123°25'1918.6
2014-Jul-23 22:33N 49°13' W 123°51'1 1.3
2014-Jul-23 21:33N 49°12' W 123°53'1717.5
2014-Jul-23 20:33N 49°06' W 123°28'1414.2
2014-Jul-23 19:33N 49°00' W 123°08'1211.7
2014-Jul-23 18:34N 49°04' W 123°25'1918.5
2014-Jul-23 17:34N 49°13' W 123°50'1 1.4
2014-Jul-23 16:33N 49°13' W 123°52'1817.6
2014-Jul-23 15:33N 49°06' W 123°27'1413.3
2014-Jul-23 14:32N 49°00' W 123°08'1212.4
2014-Jul-23 13:33N 49°04' W 123°26'1817.5
2014-Jul-23 12:33N 49°13' W 123°49'4 4.3
2014-Jul-23 11:31N 49°10' W 123°53'0 0.0
2014-Jul-23 10:30N 49°10' W 123°53'0 0.0
2014-Jul-23 09:30N 49°10' W 123°53'0 0.0
2014-Jul-23 08:29N 49°10' W 123°53'2 1.8
2014-Jul-23 07:33N 49°11' W 123°53'1717.4
2014-Jul-23 06:33N 49°08' W 123°27'1514.6
2014-Jul-23 05:33N 49°00' W 123°08'1211.9
2014-Jul-23 04:34N 49°04' W 123°25'1918.8
2014-Jul-23 03:34N 49°13' W 123°51'1 0.8
2014-Jul-23 02:33N 49°13' W 123°52'1919.3
2014-Jul-23 01:33N 49°05' W 123°25'1212.0
2014-Jul-23 00:34N 49°00' W 123°08'1413.6
2014-Jul-22 23:33N 49°05' W 123°27'1818.2
2014-Jul-22 22:33N 49°12' W 123°53'1 1.1
2014-Jul-22 21:33N 49°13' W 123°52'1918.9
2014-Jul-22 20:33N 49°05' W 123°25'1212.1
2014-Jul-22 19:32N 49°00' W 123°08'1313.8
2014-Jul-22 18:34N 49°05' W 123°27'1817.6
2014-Jul-22 17:34N 49°12' W 123°52'3 2.7
2014-Jul-22 16:33N 49°10' W 123°53'1716.7
2014-Jul-22 15:33N 49°07' W 123°28'1514.8
2014-Jul-22 14:33N 49°00' W 123°08'1212.3
2014-Jul-22 13:33N 49°04' W 123°26'1717.3
2014-Jul-22 12:34N 49°13' W 123°49'5 4.2
2014-Jul-22 11:29N 49°10' W 123°53'0 0.0
2014-Jul-22 10:33N 49°10' W 123°53'0 0.0
2014-Jul-22 09:33N 49°10' W 123°53'0 0.0
2014-Jul-22 08:33N 49°10' W 123°53'1 0.6
2014-Jul-22 07:33N 49°10' W 123°53'  

Dump ship's entire track history